Time;durP1;ratioP1;P1;durP2;ratioP2;P2;SDS_P1;SDS_P2;PMS_P1;PMS_P2;Temp;Humidity;BMP_temperature;BMP_pressure;BME280_temperature;BME280_humidity;BME280_pressure;Samples;Min_cycle;Max_cycle;Signal;HPM_P1;HPM_P2
2022/07/14 00:00:46;;;;;;;11.52;2.47;;;;;;;;;;5008553;28;20045;-81
2022/07/14 00:03:14;;;;;;;32.97;3.63;;;;;;;;;;5009623;28;20506;-82
2022/07/14 00:05:41;;;;;;;14.48;2.95;;;;;;;;;;5009482;28;20542;-82
2022/07/14 00:08:09;;;;;;;15.00;2.33;;;;;;;;;;5000409;28;20585;-81
2022/07/14 00:10:36;;;;;;;9.63;2.53;;;;;;;;;;5002688;28;20049;-82
2022/07/14 00:13:03;;;;;;;16.48;3.53;;;;;;;;;;4999214;28;20142;-82
2022/07/14 00:15:31;;;;;;;21.08;3.03;;;;;;;;;;5001128;28;20145;-82
2022/07/14 00:17:59;;;;;;;15.70;2.67;;;;;;;;;;5001528;28;20129;-82
2022/07/14 00:20:27;;;;;;;15.45;2.67;;;;;;;;;;5008106;28;20088;-82
2022/07/14 00:22:56;;;;;;;17.85;3.45;;;;;;;;;;5008262;28;20116;-81
2022/07/14 00:25:27;;;;;;;16.00;2.25;;;;;;;;;;5000600;28;20109;-82
2022/07/14 00:27:54;;;;;;;14.02;3.63;;;;;;;;;;5003036;28;20086;-82
2022/07/14 00:30:22;;;;;;;17.55;3.63;;;;;;;;;;5004212;28;21023;-82
2022/07/14 00:32:50;;;;;;;14.13;3.15;;;;;;;;;;5026614;28;20128;-81
2022/07/14 00:35:18;;;;;;;13.40;2.83;;;;;;;;;;5010877;28;20050;-81
2022/07/14 00:37:45;;;;;;;14.75;2.97;;;;;;;;;;5009640;28;20430;-81
2022/07/14 00:40:13;;;;;;;21.10;3.03;;;;;;;;;;5009596;28;20813;-82
2022/07/14 00:42:41;;;;;;;19.92;2.80;;;;;;;;;;5010812;28;20502;-82
2022/07/14 00:45:10;;;;;;;23.75;2.42;;;;;;;;;;5011473;28;20092;-82
2022/07/14 00:47:37;;;;;;;11.85;2.25;;;;;;;;;;5009425;28;20053;-82
2022/07/14 00:50:06;;;;;;;10.23;2.40;;;;;;;;;;5009939;28;20062;-82
2022/07/14 00:52:40;;;;;;;13.40;2.08;;;;;;;;;;5007792;28;20046;-82
2022/07/14 00:55:08;;;;;;;18.10;2.72;;;;;;;;;;5029314;28;20434;-81
2022/07/14 00:57:36;;;;;;;10.90;2.47;;;;;;;;;;5010858;28;20101;-81
2022/07/14 01:00:04;;;;;;;13.48;2.75;;;;;;;;;;5011201;28;20069;-82
2022/07/14 01:02:32;;;;;;;13.77;2.75;;;;;;;;;;5025412;28;20705;-81
2022/07/14 01:04:59;;;;;;;12.70;2.47;;;;;;;;;;5010195;28;20049;-82
2022/07/14 01:07:27;;;;;;;15.73;2.97;;;;;;;;;;5009172;28;20089;-81
2022/07/14 01:09:54;;;;;;;15.43;2.63;;;;;;;;;;5010372;28;20173;-82
2022/07/14 01:12:21;;;;;;;13.20;2.28;;;;;;;;;;5025060;28;20077;-82
2022/07/14 01:14:49;;;;;;;14.80;2.88;;;;;;;;;;5010606;28;20091;-82
2022/07/14 01:17:17;;;;;;;15.30;2.00;;;;;;;;;;5009642;28;20092;-82
2022/07/14 01:19:47;;;;;;;11.95;2.03;;;;;;;;;;5005304;28;20053;-82
2022/07/14 01:22:14;;;;;;;7.38;1.60;;;;;;;;;;5008268;28;20148;-81
2022/07/14 01:24:42;;;;;;;12.85;2.45;;;;;;;;;;5008979;28;20092;-81
2022/07/14 01:27:09;;;;;;;12.63;2.67;;;;;;;;;;5007935;28;20104;-81
2022/07/14 01:29:37;;;;;;;15.88;2.00;;;;;;;;;;5008564;28;21987;-82
2022/07/14 01:32:05;;;;;;;17.48;2.10;;;;;;;;;;5008368;28;20129;-82
2022/07/14 01:34:32;;;;;;;12.70;2.28;;;;;;;;;;5008430;28;20134;-81
2022/07/14 01:37:00;;;;;;;10.55;2.35;;;;;;;;;;5008035;28;20825;-82
2022/07/14 01:39:27;;;;;;;10.27;2.33;;;;;;;;;;5007441;28;20115;-82
2022/07/14 01:41:54;;;;;;;11.60;2.42;;;;;;;;;;5021593;28;20049;-82
2022/07/14 01:44:22;;;;;;;11.57;2.20;;;;;;;;;;5004411;28;20881;-82
2022/07/14 01:46:49;;;;;;;13.70;2.00;;;;;;;;;;5005900;28;20057;-82
2022/07/14 01:49:16;;;;;;;16.08;2.00;;;;;;;;;;5007647;28;20072;-82
2022/07/14 01:51:44;;;;;;;10.55;1.58;;;;;;;;;;5008275;28;20069;-82
2022/07/14 01:54:11;;;;;;;6.47;1.80;;;;;;;;;;5008244;28;20747;-82
2022/07/14 01:56:42;;;;;;;8.70;1.52;;;;;;;;;;5007149;28;20080;-82
2022/07/14 01:59:10;;;;;;;12.90;1.90;;;;;;;;;;5023598;28;20084;-82
2022/07/14 02:01:40;;;;;;;20.83;2.03;;;;;;;;;;5005837;28;20125;-82
2022/07/14 02:04:15;;;;;;;11.63;1.92;;;;;;;;;;5006150;28;20552;-82
2022/07/14 02:06:44;;;;;;;7.57;1.83;;;;;;;;;;5004311;28;20513;-82
2022/07/14 02:09:11;;;;;;;11.68;2.30;;;;;;;;;;5023162;28;20209;-82
2022/07/14 02:14:25;;;;;;;8.15;1.33;;;;;;;;;;5007132;28;20513;-82
2022/07/14 02:16:54;;;;;;;9.38;1.77;;;;;;;;;;5007244;28;20128;-83
2022/07/14 02:19:23;;;;;;;7.70;1.42;;;;;;;;;;5008510;28;20612;-82
2022/07/14 02:21:51;;;;;;;10.18;1.40;;;;;;;;;;5006091;28;20804;-81
2022/07/14 02:24:20;;;;;;;11.23;1.80;;;;;;;;;;5006574;28;20054;-82
2022/07/14 02:26:50;;;;;;;11.75;1.60;;;;;;;;;;5010475;28;20100;-82
2022/07/14 02:29:18;;;;;;;8.35;1.30;;;;;;;;;;5008393;28;20054;-82
2022/07/14 02:31:46;;;;;;;7.32;2.10;;;;;;;;;;5024226;28;20057;-83
2022/07/14 02:34:14;;;;;;;11.38;2.63;;;;;;;;;;5005819;28;20073;-81
2022/07/14 02:36:41;;;;;;;9.30;1.73;;;;;;;;;;5007966;28;20554;-82
2022/07/14 02:39:08;;;;;;;14.63;1.80;;;;;;;;;;5007574;28;20144;-82
2022/07/14 02:41:36;;;;;;;6.57;1.40;;;;;;;;;;5022777;28;20104;-82
2022/07/14 02:44:03;;;;;;;11.65;1.98;;;;;;;;;;5017530;28;20469;-82
2022/07/14 02:46:30;;;;;;;10.77;1.40;;;;;;;;;;5007795;28;20085;-81
2022/07/14 02:48:58;;;;;;;8.95;1.50;;;;;;;;;;5013823;28;20045;-82
2022/07/14 02:51:25;;;;;;;10.05;1.70;;;;;;;;;;5022880;28;20148;-82
2022/07/14 02:53:52;;;;;;;13.43;2.00;;;;;;;;;;5008136;28;20084;-82
2022/07/14 02:56:19;;;;;;;7.82;1.50;;;;;;;;;;5007429;28;20074;-81
2022/07/14 02:58:47;;;;;;;6.57;1.83;;;;;;;;;;5009651;28;20142;-80
2022/07/14 03:01:14;;;;;;;9.48;1.15;;;;;;;;;;5007772;28;20502;-80
2022/07/14 03:03:41;;;;;;;10.63;1.67;;;;;;;;;;5007292;28;20061;-80
2022/07/14 03:06:09;;;;;;;15.05;1.73;;;;;;;;;;5006560;28;20058;-81
2022/07/14 03:08:36;;;;;;;20.52;1.67;;;;;;;;;;5010605;28;20116;-81
2022/07/14 03:11:04;;;;;;;9.32;1.60;;;;;;;;;;5007916;28;20077;-81
2022/07/14 03:13:31;;;;;;;13.57;1.75;;;;;;;;;;5006846;28;20081;-81
2022/07/14 03:15:59;;;;;;;10.25;1.95;;;;;;;;;;5009488;28;20050;-81
2022/07/14 03:18:27;;;;;;;15.15;2.00;;;;;;;;;;5008112;28;20140;-81
2022/07/14 03:20:54;;;;;;;12.20;2.15;;;;;;;;;;5011861;28;20050;-81
2022/07/14 03:23:22;;;;;;;9.98;2.28;;;;;;;;;;5010762;28;20061;-81
2022/07/14 03:25:49;;;;;;;10.52;1.90;;;;;;;;;;5010890;28;20079;-81
2022/07/14 03:28:16;;;;;;;7.90;1.38;;;;;;;;;;5010098;28;20065;-81
2022/07/14 03:30:44;;;;;;;8.65;1.75;;;;;;;;;;5011444;28;20100;-81
2022/07/14 03:33:11;;;;;;;8.75;1.38;;;;;;;;;;5008201;28;20087;-81
2022/07/14 03:35:39;;;;;;;12.70;1.95;;;;;;;;;;5009830;28;20050;-80
2022/07/14 03:38:07;;;;;;;8.52;1.70;;;;;;;;;;5005253;28;20073;-81
2022/07/14 03:40:54;;;;;;;10.52;1.05;;;;;;;;;;5003771;28;20061;-82
2022/07/14 03:43:21;;;;;;;7.85;1.60;;;;;;;;;;5004047;28;20145;-81
2022/07/14 03:45:49;;;;;;;4.70;1.38;;;;;;;;;;5002120;28;20149;-81
2022/07/14 03:48:16;;;;;;;7.93;2.47;;;;;;;;;;5027117;28;20104;-80
2022/07/14 03:50:43;;;;;;;14.68;2.00;;;;;;;;;;5011495;28;20136;-81
2022/07/14 03:53:11;;;;;;;6.78;1.50;;;;;;;;;;5012507;28;20705;-81
2022/07/14 03:55:38;;;;;;;9.57;1.77;;;;;;;;;;5013296;28;20790;-81
2022/07/14 03:58:06;;;;;;;11.20;1.70;;;;;;;;;;5014401;28;20097;-81
2022/07/14 04:00:33;;;;;;;10.95;1.45;;;;;;;;;;5008809;28;20080;-81
2022/07/14 04:03:01;;;;;;;15.68;1.88;;;;;;;;;;5010914;28;20152;-81
2022/07/14 04:05:28;;;;;;;13.00;1.92;;;;;;;;;;5010973;28;20780;-81
2022/07/14 04:07:55;;;;;;;15.75;2.08;;;;;;;;;;5011322;28;20089;-81
2022/07/14 04:10:23;;;;;;;10.27;1.63;;;;;;;;;;5010970;28;20077;-82
2022/07/14 04:12:50;;;;;;;9.00;2.25;;;;;;;;;;5010817;28;20099;-81
2022/07/14 04:15:18;;;;;;;12.65;1.70;;;;;;;;;;5013592;28;20077;-81
2022/07/14 04:17:48;;;;;;;12.70;1.58;;;;;;;;;;5010205;28;20483;-81
2022/07/14 04:20:16;;;;;;;13.00;1.95;;;;;;;;;;5011520;28;20100;-82
2022/07/14 04:22:44;;;;;;;9.27;1.60;;;;;;;;;;5011725;28;20077;-81
2022/07/14 04:25:12;;;;;;;10.60;2.10;;;;;;;;;;5012125;28;20418;-81
2022/07/14 04:27:40;;;;;;;12.70;1.38;;;;;;;;;;5010366;28;20052;-82
2022/07/14 04:30:11;;;;;;;12.82;1.83;;;;;;;;;;5001695;28;20072;-81
2022/07/14 04:32:39;;;;;;;7.07;1.98;;;;;;;;;;5002820;28;20145;-81
2022/07/14 04:35:07;;;;;;;9.70;2.05;;;;;;;;;;5029083;28;20541;-81
2022/07/14 04:37:34;;;;;;;16.13;1.67;;;;;;;;;;5008867;28;20053;-82
2022/07/14 04:40:02;;;;;;;6.65;1.65;;;;;;;;;;5013570;28;20147;-82
2022/07/14 04:42:30;;;;;;;7.50;1.63;;;;;;;;;;5011535;28;20138;-82
2022/07/14 04:44:58;;;;;;;10.13;2.55;;;;;;;;;;5011031;28;20100;-82
2022/07/14 04:47:25;;;;;;;16.23;2.30;;;;;;;;;;5009060;28;20077;-79
2022/07/14 04:52:45;;;;;;;8.40;1.70;;;;;;;;;;5009149;28;20130;-81
2022/07/14 04:55:12;;;;;;;6.63;1.48;;;;;;;;;;5010359;28;20049;-81
2022/07/14 04:57:40;;;;;;;5.78;1.27;;;;;;;;;;5025086;28;20050;-84
2022/07/14 05:00:07;;;;;;;13.48;2.00;;;;;;;;;;5010818;28;20049;-80
2022/07/14 05:02:35;;;;;;;11.98;1.63;;;;;;;;;;5010206;28;20702;-83
2022/07/14 05:05:03;;;;;;;13.75;1.58;;;;;;;;;;5010836;28;20061;-84
2022/07/14 05:07:30;;;;;;;12.25;1.98;;;;;;;;;;5010297;28;20137;-82
2022/07/14 05:09:57;;;;;;;13.38;1.60;;;;;;;;;;5008151;28;20700;-83
2022/07/14 05:12:25;;;;;;;8.93;1.55;;;;;;;;;;5003725;28;20070;-81
2022/07/14 05:14:53;;;;;;;12.40;1.52;;;;;;;;;;5010526;28;20756;-81
2022/07/14 05:17:20;;;;;;;13.52;1.48;;;;;;;;;;5008345;28;20073;-76
2022/07/14 05:19:52;;;;;;;8.55;1.95;;;;;;;;;;5003570;28;20057;-75
2022/07/14 05:22:19;;;;;;;17.80;1.90;;;;;;;;;;5006047;28;20073;-75
2022/07/14 05:24:46;;;;;;;8.02;1.70;;;;;;;;;;4994722;28;20569;-74
2022/07/14 05:27:14;;;;;;;11.45;1.73;;;;;;;;;;4991933;28;20056;-74
2022/07/14 05:29:41;;;;;;;15.40;2.13;;;;;;;;;;5006231;28;20458;-75
2022/07/14 05:32:08;;;;;;;9.88;2.03;;;;;;;;;;5008925;28;20096;-75
2022/07/14 05:34:43;;;;;;;6.10;1.50;;;;;;;;;;5008423;28;20672;-77
2022/07/14 05:37:10;;;;;;;17.65;2.30;;;;;;;;;;5009440;28;20074;-81
2022/07/14 05:39:38;;;;;;;21.38;2.83;;;;;;;;;;5016384;28;20455;-77
2022/07/14 05:42:06;;;;;;;12.25;1.83;;;;;;;;;;5008769;28;20743;-75
2022/07/14 05:44:34;;;;;;;11.20;1.80;;;;;;;;;;5011834;28;20049;-77
2022/07/14 05:47:02;;;;;;;12.68;2.05;;;;;;;;;;5006787;28;20128;-76
2022/07/14 05:49:29;;;;;;;8.90;1.33;;;;;;;;;;5005211;28;20700;-76
2022/07/14 05:51:57;;;;;;;14.75;2.13;;;;;;;;;;5004339;28;20085;-76
2022/07/14 05:54:24;;;;;;;9.10;1.75;;;;;;;;;;5000229;28;20114;-76
2022/07/14 05:56:51;;;;;;;12.15;2.15;;;;;;;;;;4996104;28;20123;-75
2022/07/14 05:59:19;;;;;;;12.10;2.00;;;;;;;;;;5012666;28;20049;-76
2022/07/14 06:02:07;;;;;;;12.50;1.65;;;;;;;;;;5015755;28;20062;-75
2022/07/14 06:04:34;;;;;;;14.38;1.88;;;;;;;;;;5000158;28;20071;-75
2022/07/14 06:07:01;;;;;;;16.83;2.83;;;;;;;;;;4999576;28;20093;-75
2022/07/14 06:09:29;;;;;;;9.93;2.38;;;;;;;;;;5013641;28;20058;-76
2022/07/14 06:11:56;;;;;;;11.57;1.88;;;;;;;;;;5001457;28;20573;-76
2022/07/14 06:14:23;;;;;;;8.60;1.52;;;;;;;;;;4997168;28;20121;-75
2022/07/14 06:16:51;;;;;;;12.98;1.80;;;;;;;;;;5008676;28;20177;-75
2022/07/14 06:19:18;;;;;;;16.67;1.75;;;;;;;;;;5003538;28;20046;-75
2022/07/14 06:21:46;;;;;;;11.25;2.65;;;;;;;;;;5004620;28;20383;-75
2022/07/14 06:24:13;;;;;;;19.60;2.70;;;;;;;;;;5002654;28;20054;-75
2022/07/14 06:26:40;;;;;;;11.60;1.80;;;;;;;;;;5003619;28;20050;-75
2022/07/14 06:29:08;;;;;;;9.52;1.50;;;;;;;;;;5004652;28;20140;-76
2022/07/14 06:31:36;;;;;;;8.00;1.42;;;;;;;;;;5004397;28;20081;-75
2022/07/14 06:34:04;;;;;;;11.57;1.45;;;;;;;;;;5004896;28;20080;-75
2022/07/14 06:36:32;;;;;;;14.55;1.48;;;;;;;;;;5003132;28;20045;-76
2022/07/14 06:38:59;;;;;;;9.10;1.48;;;;;;;;;;5001542;28;20460;-76
2022/07/14 06:41:27;;;;;;;6.43;1.50;;;;;;;;;;4999556;28;20124;-76
2022/07/14 06:43:55;;;;;;;8.82;1.30;;;;;;;;;;4995181;28;20054;-75
2022/07/14 06:46:22;;;;;;;6.35;1.33;;;;;;;;;;5019010;28;20065;-74
2022/07/14 06:48:49;;;;;;;6.85;1.58;;;;;;;;;;5001296;28;20078;-78
2022/07/14 06:51:17;;;;;;;7.47;1.08;;;;;;;;;;5013843;28;20049;-75
2022/07/14 06:53:44;;;;;;;6.22;1.30;;;;;;;;;;5003421;28;20104;-75
2022/07/14 06:56:12;;;;;;;8.50;1.55;;;;;;;;;;5005840;28;20125;-75
2022/07/14 06:58:39;;;;;;;10.07;1.48;;;;;;;;;;5005722;28;20053;-76
2022/07/14 07:01:07;;;;;;;8.05;1.30;;;;;;;;;;5003018;28;20160;-75
2022/07/14 07:03:35;;;;;;;6.57;1.13;;;;;;;;;;5018795;28;20070;-75
2022/07/14 07:08:48;;;;;;;6.35;1.30;;;;;;;;;;4996392;28;20115;-75
2022/07/14 07:11:16;;;;;;;8.38;1.17;;;;;;;;;;5003451;28;20140;-75
2022/07/14 07:13:44;;;;;;;9.50;2.13;;;;;;;;;;5005031;28;20046;-76
2022/07/14 07:16:12;;;;;;;6.57;1.30;;;;;;;;;;4999606;28;20786;-75
2022/07/14 07:18:39;;;;;;;6.15;1.73;;;;;;;;;;5007310;28;20049;-76
2022/07/14 07:21:07;;;;;;;7.03;1.38;;;;;;;;;;5000728;28;20778;-75
2022/07/14 07:23:34;;;;;;;7.93;1.52;;;;;;;;;;4996979;28;20054;-77
2022/07/14 07:26:02;;;;;;;5.80;0.80;;;;;;;;;;5003314;28;20058;-85
2022/07/14 07:28:29;;;;;;;6.20;1.10;;;;;;;;;;5017691;28;20049;-86
2022/07/14 07:30:57;;;;;;;6.88;1.00;;;;;;;;;;5019252;28;20989;-86
2022/07/14 07:33:24;;;;;;;7.22;0.90;;;;;;;;;;5004954;28;20143;-77
2022/07/14 07:35:51;;;;;;;11.07;1.38;;;;;;;;;;5006454;28;20530;-78
2022/07/14 07:38:19;;;;;;;5.15;1.73;;;;;;;;;;5004764;28;20092;-77
2022/07/14 07:40:49;;;;;;;7.35;1.55;;;;;;;;;;5001097;28;20077;-77
2022/07/14 07:43:19;;;;;;;8.75;1.30;;;;;;;;;;4986112;28;20073;-77
2022/07/14 07:45:46;;;;;;;7.00;1.02;;;;;;;;;;4987476;28;20208;-77
2022/07/14 07:48:13;;;;;;;17.95;3.28;;;;;;;;;;5002946;28;20060;-76
2022/07/14 07:50:42;;;;;;;5.25;1.00;;;;;;;;;;4989065;28;20144;-77
2022/07/14 07:53:10;;;;;;;4.25;0.80;;;;;;;;;;5004774;28;20079;-76
2022/07/14 07:55:38;;;;;;;8.23;1.48;;;;;;;;;;4999944;28;20054;-76
2022/07/14 07:58:07;;;;;;;10.30;1.30;;;;;;;;;;4993580;28;20141;-77
2022/07/14 08:00:35;;;;;;;6.65;0.90;;;;;;;;;;5012411;28;20459;-76
2022/07/14 08:03:03;;;;;;;6.70;0.98;;;;;;;;;;5016171;28;20516;-77
2022/07/14 08:05:30;;;;;;;10.88;0.80;;;;;;;;;;5001830;28;20053;-75
2022/07/14 08:08:18;;;;;;;7.85;1.08;;;;;;;;;;5003991;28;20056;-75
2022/07/14 08:10:45;;;;;;;4.32;1.00;;;;;;;;;;5012051;28;20085;-75
2022/07/14 08:13:12;;;;;;;4.13;1.30;;;;;;;;;;4998181;28;20064;-76
2022/07/14 08:15:40;;;;;;;6.25;1.08;;;;;;;;;;5000328;28;20104;-73
2022/07/14 08:18:07;;;;;;;6.57;0.95;;;;;;;;;;4994810;28;20045;-73
2022/07/14 08:20:35;;;;;;;3.75;1.00;;;;;;;;;;4995031;28;20065;-74
2022/07/14 08:23:03;;;;;;;4.38;1.10;;;;;;;;;;5001144;28;20133;-75
2022/07/14 08:25:30;;;;;;;3.20;0.65;;;;;;;;;;5007006;28;20057;-74
2022/07/14 08:27:57;;;;;;;5.57;1.00;;;;;;;;;;5018249;28;20667;-74
2022/07/14 08:30:25;;;;;;;3.20;0.77;;;;;;;;;;4986617;28;20829;-74
2022/07/14 08:32:53;;;;;;;6.65;0.90;;;;;;;;;;5005521;28;20058;-74
2022/07/14 08:35:23;;;;;;;5.93;0.80;;;;;;;;;;5021650;28;20785;-74
2022/07/14 08:37:51;;;;;;;3.83;0.52;;;;;;;;;;5006863;28;20077;-74
2022/07/14 08:40:20;;;;;;;3.33;0.60;;;;;;;;;;5004169;28;20134;-75
2022/07/14 08:42:50;;;;;;;9.18;0.85;;;;;;;;;;5006448;28;20045;-74
2022/07/14 08:45:18;;;;;;;4.45;0.93;;;;;;;;;;5005201;28;20088;-74
2022/07/14 08:47:46;;;;;;;4.25;0.60;;;;;;;;;;4998966;28;20057;-74
2022/07/14 08:50:15;;;;;;;8.65;0.85;;;;;;;;;;5000147;28;20071;-75
2022/07/14 08:52:43;;;;;;;4.03;0.60;;;;;;;;;;5010980;28;20066;-74
2022/07/14 08:55:11;;;;;;;10.57;1.27;;;;;;;;;;5001383;28;20139;-74
2022/07/14 08:57:39;;;;;;;2.72;0.63;;;;;;;;;;5021132;28;20092;-75
2022/07/14 09:00:10;;;;;;;2.95;0.50;;;;;;;;;;5003928;28;20494;-75
2022/07/14 09:02:39;;;;;;;3.42;0.50;;;;;;;;;;5002389;28;20045;-75
2022/07/14 09:05:26;;;;;;;2.58;0.60;;;;;;;;;;4999570;28;20054;-75
2022/07/14 09:07:56;;;;;;;3.58;0.73;;;;;;;;;;5005237;28;20475;-74
2022/07/14 09:10:27;;;;;;;3.83;0.80;;;;;;;;;;4999485;28;20120;-76
2022/07/14 09:13:15;;;;;;;2.60;0.50;;;;;;;;;;4991842;28;20826;-76
2022/07/14 09:15:45;;;;;;;5.97;0.52;;;;;;;;;;5022494;28;20085;-75
2022/07/14 09:18:26;;;;;;;4.57;0.60;;;;;;;;;;5005929;28;20050;-77
2022/07/14 09:20:55;;;;;;;4.68;0.90;;;;;;;;;;5007535;28;20046;-75
2022/07/14 09:23:30;;;;;;;1.65;0.55;;;;;;;;;;5012745;28;20050;-81
2022/07/14 09:26:16;;;;;;;5.63;0.85;;;;;;;;;;5010704;28;20579;-83
2022/07/14 09:28:46;;;;;;;2.10;0.60;;;;;;;;;;4992373;28;20051;-82
2022/07/14 09:31:21;;;;;;;2.58;0.70;;;;;;;;;;5023852;28;20081;-83
2022/07/14 09:33:59;;;;;;;4.35;0.77;;;;;;;;;;5012339;28;20779;-82
2022/07/14 09:36:29;;;;;;;5.13;0.75;;;;;;;;;;5027294;28;20046;-83
2022/07/14 09:38:57;;;;;;;3.08;0.45;;;;;;;;;;5026959;28;20050;-82
2022/07/14 09:41:26;;;;;;;2.67;0.57;;;;;;;;;;5011714;28;20093;-82
2022/07/14 09:44:10;;;;;;;1.95;0.45;;;;;;;;;;5011211;28;20072;-82
2022/07/14 09:46:48;;;;;;;3.50;0.50;;;;;;;;;;5023342;28;20058;-84
2022/07/14 09:49:16;;;;;;;2.85;0.50;;;;;;;;;;5016933;28;20053;-82
2022/07/14 09:51:58;;;;;;;1.55;0.50;;;;;;;;;;5025812;28;20042;-83
2022/07/14 09:54:37;;;;;;;3.53;1.25;;;;;;;;;;5010369;28;20127;-83
2022/07/14 09:57:08;;;;;;;8.65;0.70;;;;;;;;;;5011277;28;20050;-82
2022/07/14 09:59:48;;;;;;;4.47;0.50;;;;;;;;;;5009498;28;20046;-83
2022/07/14 10:02:17;;;;;;;6.55;0.60;;;;;;;;;;5009800;28;20096;-82
2022/07/14 10:04:46;;;;;;;2.45;0.40;;;;;;;;;;5009473;28;20046;-82
2022/07/14 10:07:13;;;;;;;9.32;0.65;;;;;;;;;;5011611;28;20049;-82
2022/07/14 10:09:44;;;;;;;5.30;0.45;;;;;;;;;;5016233;28;20553;-83
2022/07/14 10:12:11;;;;;;;3.38;1.02;;;;;;;;;;5006736;28;20053;-83
2022/07/14 10:14:39;;;;;;;6.10;0.60;;;;;;;;;;5010357;28;20494;-83
2022/07/14 10:17:07;;;;;;;3.10;0.50;;;;;;;;;;5010288;28;20077;-83
2022/07/14 10:19:35;;;;;;;7.45;0.43;;;;;;;;;;5022443;28;20104;-83
2022/07/14 10:22:02;;;;;;;3.58;0.50;;;;;;;;;;5006674;28;20058;-83
2022/07/14 10:24:30;;;;;;;3.08;0.90;;;;;;;;;;4991862;28;20081;-82
2022/07/14 10:26:58;;;;;;;4.68;0.77;;;;;;;;;;5023670;28;20060;-83
2022/07/14 10:29:26;;;;;;;3.63;0.82;;;;;;;;;;5011024;28;20137;-83
2022/07/14 10:31:53;;;;;;;2.88;0.60;;;;;;;;;;5004059;28;20084;-82
2022/07/14 10:34:34;;;;;;;2.50;0.63;;;;;;;;;;5006522;28;20379;-82
2022/07/14 10:37:05;;;;;;;2.63;0.80;;;;;;;;;;5001255;28;20545;-83
2022/07/14 10:39:46;;;;;;;4.07;1.25;;;;;;;;;;5006718;28;20690;-81
2022/07/14 10:42:26;;;;;;;2.50;0.50;;;;;;;;;;5007511;28;20107;-82
2022/07/14 10:44:53;;;;;;;4.82;0.65;;;;;;;;;;5006798;28;20121;-83
2022/07/14 10:47:24;;;;;;;6.35;0.65;;;;;;;;;;5007278;28;20088;-81
2022/07/14 10:50:00;;;;;;;12.07;0.98;;;;;;;;;;5017636;28;20915;-80
2022/07/14 10:52:32;;;;;;;3.85;0.70;;;;;;;;;;4998009;28;20069;-74
2022/07/14 10:55:14;;;;;;;3.13;0.73;;;;;;;;;;5002956;28;20163;-75
2022/07/14 10:58:00;;;;;;;1.67;0.40;;;;;;;;;;5002972;28;20140;-76
2022/07/14 11:00:39;;;;;;;2.35;0.68;;;;;;;;;;4996351;28;20751;-75
2022/07/14 11:03:33;;;;;;;1.75;0.40;;;;;;;;;;5020876;28;20500;-74
2022/07/14 11:06:03;;;;;;;2.65;0.47;;;;;;;;;;4981798;28;20050;-74
2022/07/14 11:09:07;;;;;;;1.95;0.73;;;;;;;;;;5003934;28;20433;-74
2022/07/14 11:11:34;;;;;;;5.55;0.43;;;;;;;;;;5001137;28;20064;-74
2022/07/14 11:14:01;;;;;;;2.83;0.77;;;;;;;;;;5004473;28;20045;-75
2022/07/14 11:16:47;;;;;;;6.88;0.50;;;;;;;;;;5011686;28;20133;-76
2022/07/14 11:19:30;;;;;;;3.28;0.43;;;;;;;;;;5003413;28;20058;-76
2022/07/14 11:22:17;;;;;;;4.90;0.38;;;;;;;;;;5006970;28;20136;-76
2022/07/14 11:24:45;;;;;;;2.88;0.50;;;;;;;;;;5008922;28;20088;-76
2022/07/14 11:27:32;;;;;;;1.08;0.40;;;;;;;;;;5003510;28;20054;-74
2022/07/14 11:30:16;;;;;;;4.25;0.57;;;;;;;;;;5011227;28;20109;-74
2022/07/14 11:32:44;;;;;;;5.40;0.43;;;;;;;;;;5000772;28;20073;-74
2022/07/14 11:37:59;;;;;;;3.85;1.08;;;;;;;;;;5024895;28;20949;-75
2022/07/14 11:40:45;;;;;;;5.55;0.70;;;;;;;;;;5025674;28;20049;-74
2022/07/14 11:43:31;;;;;;;1.77;0.38;;;;;;;;;;5009970;28;20081;-74
2022/07/14 11:45:59;;;;;;;4.60;0.40;;;;;;;;;;5007450;28;20137;-74
2022/07/14 11:48:31;;;;;;;2.35;0.47;;;;;;;;;;5007644;28;20058;-74
2022/07/14 11:51:04;;;;;;;1.77;0.30;;;;;;;;;;5008774;28;20092;-74
2022/07/14 11:53:32;;;;;;;1.67;0.47;;;;;;;;;;5013381;28;20515;-74
2022/07/14 11:56:00;;;;;;;6.88;0.80;;;;;;;;;;4995265;28;20129;-74
2022/07/14 11:58:29;;;;;;;0.95;0.40;;;;;;;;;;5000491;28;20139;-74
2022/07/14 12:00:59;;;;;;;4.18;0.57;;;;;;;;;;4989161;28;20064;-74
2022/07/14 12:03:27;;;;;;;4.55;0.80;;;;;;;;;;4993329;28;20175;-74
2022/07/14 12:05:55;;;;;;;2.08;0.60;;;;;;;;;;5018282;28;20091;-74
2022/07/14 12:08:24;;;;;;;2.67;0.30;;;;;;;;;;5013837;28;20125;-74
2022/07/14 12:10:52;;;;;;;4.60;0.82;;;;;;;;;;5008129;28;20133;-74
2022/07/14 12:13:20;;;;;;;3.63;0.77;;;;;;;;;;4988864;28;20168;-74
2022/07/14 12:15:48;;;;;;;3.63;0.82;;;;;;;;;;5003414;28;20117;-74
2022/07/14 12:18:15;;;;;;;3.83;0.98;;;;;;;;;;4989224;28;20054;-74
2022/07/14 12:20:44;;;;;;;3.35;0.73;;;;;;;;;;4999855;28;20390;-74
2022/07/14 12:23:12;;;;;;;2.25;0.90;;;;;;;;;;5028417;28;20049;-74
2022/07/14 12:25:41;;;;;;;1.00;0.60;;;;;;;;;;5027272;28;20076;-74
2022/07/14 12:28:15;;;;;;;4.25;0.80;;;;;;;;;;5017631;28;20073;-74
2022/07/14 12:30:45;;;;;;;1.85;0.70;;;;;;;;;;5008258;28;20406;-74
2022/07/14 12:33:14;;;;;;;4.15;0.65;;;;;;;;;;5006752;28;20089;-74
2022/07/14 12:35:43;;;;;;;2.88;0.70;;;;;;;;;;5008121;28;20054;-74
2022/07/14 12:38:11;;;;;;;4.22;0.60;;;;;;;;;;5009738;28;20153;-74
2022/07/14 12:40:48;;;;;;;6.72;0.63;;;;;;;;;;5007830;28;20061;-73
2022/07/14 12:43:20;;;;;;;2.10;0.40;;;;;;;;;;5007871;28;20054;-74
2022/07/14 12:45:58;;;;;;;2.65;0.57;;;;;;;;;;5008169;28;20494;-74
2022/07/14 12:48:25;;;;;;;2.47;0.43;;;;;;;;;;5008275;28;20115;-74
2022/07/14 12:50:53;;;;;;;2.65;0.60;;;;;;;;;;5006279;28;20090;-73
2022/07/14 12:53:20;;;;;;;1.67;0.50;;;;;;;;;;5018291;28;20845;-74
2022/07/14 12:55:48;;;;;;;3.15;0.65;;;;;;;;;;5024944;28;20129;-74
2022/07/14 12:58:16;;;;;;;4.82;0.60;;;;;;;;;;5008093;28;20049;-74
2022/07/14 13:00:46;;;;;;;4.50;0.50;;;;;;;;;;5007069;28;20149;-74
2022/07/14 13:03:15;;;;;;;9.73;0.50;;;;;;;;;;5006218;28;20053;-74
2022/07/14 13:05:47;;;;;;;1.92;0.43;;;;;;;;;;5005427;28;20140;-74
2022/07/14 13:08:33;;;;;;;4.25;0.65;;;;;;;;;;5004776;28;20152;-74
2022/07/14 13:11:01;;;;;;;4.07;0.70;;;;;;;;;;5003790;28;20097;-74
2022/07/14 13:13:30;;;;;;;3.20;0.50;;;;;;;;;;5004328;28;20142;-74
2022/07/14 13:16:13;;;;;;;3.60;0.60;;;;;;;;;;5012842;28;20149;-74
2022/07/14 13:19:00;;;;;;;0.95;0.60;;;;;;;;;;5024569;28;20072;-74
2022/07/14 13:21:47;;;;;;;3.92;0.68;;;;;;;;;;5025351;28;20061;-74
2022/07/14 13:24:32;;;;;;;2.42;0.35;;;;;;;;;;5023744;28;20128;-74
2022/07/14 13:27:00;;;;;;;;;;;;;;;;;;4987239;28;20058;-74
2022/07/14 13:29:28;;;;;;;1.38;0.63;;;;;;;;;;4986979;28;19925;-74
2022/07/14 13:31:55;;;;;;;1.83;0.57;;;;;;;;;;5002576;28;20534;-74
2022/07/14 13:34:23;;;;;;;4.32;0.55;;;;;;;;;;5006317;28;20145;-74
2022/07/14 13:36:52;;;;;;;3.42;0.98;;;;;;;;;;5006270;28;20405;-74
2022/07/14 13:39:19;;;;;;;3.70;0.50;;;;;;;;;;5004206;28;20132;-74
2022/07/14 13:41:53;;;;;;;1.20;0.40;;;;;;;;;;5003695;28;20112;-74
2022/07/14 13:44:20;;;;;;;7.57;0.70;;;;;;;;;;4986733;28;20094;-74
2022/07/14 13:46:48;;;;;;;2.28;0.50;;;;;;;;;;5001708;28;20061;-73
2022/07/14 13:49:16;;;;;;;3.25;0.75;;;;;;;;;;5007889;28;20067;-74
2022/07/14 13:54:31;;;;;;;15.27;0.85;;;;;;;;;;4986251;28;20066;-75
2022/07/14 13:56:59;;;;;;;4.10;0.70;;;;;;;;;;4996732;28;20128;-75
2022/07/14 13:59:26;;;;;;;2.70;0.63;;;;;;;;;;5004950;28;20053;-75
2022/07/14 14:01:54;;;;;;;5.78;0.95;;;;;;;;;;5005718;28;20132;-75
2022/07/14 14:04:21;;;;;;;6.05;1.00;;;;;;;;;;5004507;28;20554;-74
2022/07/14 14:06:50;;;;;;;9.55;0.70;;;;;;;;;;5004483;28;20168;-75
2022/07/14 14:09:18;;;;;;;3.78;0.60;;;;;;;;;;5004440;28;20145;-75
2022/07/14 14:11:46;;;;;;;2.70;0.73;;;;;;;;;;4999866;28;20144;-75
2022/07/14 14:14:14;;;;;;;9.68;0.52;;;;;;;;;;5025982;28;20049;-76
2022/07/14 14:16:41;;;;;;;3.92;0.63;;;;;;;;;;5025693;28;20152;-75
2022/07/14 14:19:18;;;;;;;3.15;0.93;;;;;;;;;;5023891;28;20806;-75
2022/07/14 14:21:48;;;;;;;3.28;0.40;;;;;;;;;;5011867;28;20052;-75
2022/07/14 14:24:16;;;;;;;2.28;0.55;;;;;;;;;;5031856;28;20060;-75
2022/07/14 14:26:44;;;;;;;3.50;0.52;;;;;;;;;;5023878;28;20224;-75
2022/07/14 14:29:12;;;;;;;3.28;0.50;;;;;;;;;;5025016;28;20081;-75
2022/07/14 14:31:42;;;;;;;3.95;0.55;;;;;;;;;;5023700;28;20363;-75
2022/07/14 14:34:10;;;;;;;3.60;0.73;;;;;;;;;;5012361;28;20050;-75
2022/07/14 14:36:37;;;;;;;2.20;0.50;;;;;;;;;;5007046;28;20104;-75
2022/07/14 14:39:04;;;;;;;3.55;0.50;;;;;;;;;;5008067;28;20104;-75
2022/07/14 14:41:32;;;;;;;4.60;0.68;;;;;;;;;;5006131;28;20498;-75
2022/07/14 14:43:59;;;;;;;4.60;1.08;;;;;;;;;;5005932;28;20796;-75
2022/07/14 14:46:27;;;;;;;3.53;0.50;;;;;;;;;;5005221;28;20794;-75
2022/07/14 14:48:55;;;;;;;6.03;0.52;;;;;;;;;;5004392;28;20131;-75
2022/07/14 14:51:23;;;;;;;1.80;0.63;;;;;;;;;;5003427;28;20155;-75
2022/07/14 14:53:50;;;;;;;6.32;0.60;;;;;;;;;;5005078;28;20120;-75
2022/07/14 14:56:17;;;;;;;7.45;0.70;;;;;;;;;;5003905;28;20562;-75
2022/07/14 14:58:44;;;;;;;2.47;0.68;;;;;;;;;;5005034;28;20069;-75
2022/07/14 15:01:12;;;;;;;1.50;0.50;;;;;;;;;;5006170;28;20137;-75
2022/07/14 15:03:40;;;;;;;3.95;0.60;;;;;;;;;;5004031;28;20050;-76
2022/07/14 15:06:16;;;;;;;3.50;0.57;;;;;;;;;;5007252;28;20052;-76